createdAt,value
2023-05-03T00:00:48.442Z,100.00
2023-05-03T00:10:59.277Z,100.00
2023-05-03T00:21:01.006Z,100.00
2023-05-03T00:31:11.271Z,100.00
2023-05-03T00:41:13.668Z,100.00
2023-05-03T00:51:16.399Z,100.00
2023-05-03T01:01:19.097Z,100.00
2023-05-03T01:11:27.533Z,100.00
2023-05-03T01:21:31.081Z,100.00
2023-05-03T01:31:44.013Z,100.00
2023-05-03T01:41:46.129Z,100.00
2023-05-03T01:51:51.763Z,100.00
2023-05-03T02:01:53.415Z,100.00
2023-05-03T02:11:55.422Z,100.00
2023-05-03T02:21:57.039Z,100.00
2023-05-03T02:31:59.775Z,100.00
2023-05-03T02:42:03.400Z,100.00
2023-05-03T02:52:06.135Z,100.00
2023-05-03T03:02:09.809Z,100.00
2023-05-03T03:12:11.536Z,100.00
2023-05-03T03:22:13.158Z,100.00
2023-05-03T03:32:17.495Z,100.00
2023-05-03T03:42:20.918Z,100.00
2023-05-03T03:52:22.921Z,100.00
2023-05-03T04:02:25.063Z,100.00
2023-05-03T04:12:34.149Z,100.00
2023-05-03T04:22:39.224Z,100.00
2023-05-03T04:32:43.172Z,100.00
2023-05-03T04:42:48.082Z,100.00
2023-05-03T04:52:49.864Z,100.00
2023-05-03T05:02:55.234Z,100.00
2023-05-03T05:12:58.061Z,100.00
2023-05-03T05:23:00.183Z,100.00
2023-05-03T05:33:07.429Z,100.00
2023-05-03T05:43:11.606Z,100.00
2023-05-03T05:53:13.380Z,100.00
2023-05-03T06:03:16.003Z,100.00
2023-05-03T06:13:17.786Z,100.00
2023-05-03T06:23:20.860Z,100.00
2023-05-03T06:33:22.545Z,100.00
2023-05-03T06:43:24.256Z,100.00
2023-05-03T06:53:26.156Z,100.00
2023-05-03T07:03:27.937Z,100.00
2023-05-03T07:13:29.991Z,100.00
2023-05-03T07:23:32.059Z,98.90
2023-05-03T07:33:37.639Z,94.78
2023-05-03T07:43:39.586Z,85.73
2023-05-03T07:53:41.524Z,70.60
2023-05-03T08:03:44.790Z,70.33
2023-05-03T08:13:46.609Z,64.01
2023-05-03T08:23:49.273Z,65.94
2023-05-03T08:33:58.785Z,65.58
2023-05-03T08:44:01.398Z,58.80
2023-05-03T08:54:03.569Z,56.84
2023-05-03T09:04:06.153Z,54.88
2023-05-03T09:14:14.691Z,56.07
2023-05-03T09:24:23.094Z,51.17
2023-05-03T09:34:24.851Z,54.36
2023-05-03T09:44:44.580Z,57.16
2023-05-03T09:54:46.632Z,58.45
2023-05-03T10:04:57.255Z,54.32
2023-05-03T10:15:01.640Z,50.46
2023-05-03T10:25:11.504Z,48.83
2023-05-03T10:35:16.598Z,50.43
2023-05-03T10:45:31.712Z,57.32
2023-05-03T10:55:34.182Z,56.26
2023-05-03T11:05:38.301Z,56.93
2023-05-03T11:15:41.198Z,56.23
2023-05-03T11:25:43.066Z,58.43
2023-05-03T11:35:44.866Z,56.54
2023-05-03T11:45:48.361Z,62.39
2023-05-03T11:55:53.935Z,63.41
2023-05-03T12:05:57.485Z,69.50
2023-05-03T12:26:10.147Z,73.36
2023-05-03T12:36:14.596Z,71.53
2023-05-03T12:46:32.207Z,75.23
2023-05-03T12:56:39.766Z,74.28
2023-05-03T13:06:43.850Z,74.20
2023-05-03T13:16:50.197Z,75.52
2023-05-03T13:26:51.960Z,78.77
2023-05-03T13:36:53.672Z,70.16
2023-05-03T13:46:57.444Z,64.11
2023-05-03T13:56:59.430Z,64.52
2023-05-03T14:07:10.106Z,68.62
2023-05-03T14:17:12.207Z,70.13
2023-05-03T14:27:15.223Z,65.76
2023-05-03T14:37:23.242Z,63.68
2023-05-03T14:47:28.244Z,73.26
2023-05-03T14:57:34.392Z,79.37
2023-05-03T15:07:38.146Z,78.36
2023-05-03T15:17:39.918Z,79.64
2023-05-03T15:27:42.637Z,81.60
2023-05-03T15:37:44.413Z,83.80
2023-05-03T15:47:47.126Z,87.42
2023-05-03T15:57:48.805Z,88.92
2023-05-03T16:07:51.017Z,95.51
2023-05-03T16:18:01.295Z,99.24
2023-05-03T16:28:03.198Z,99.91
2023-05-03T16:38:04.757Z,98.83
2023-05-03T16:48:09.091Z,100.00
2023-05-03T16:58:12.416Z,100.00
2023-05-03T17:08:15.500Z,100.00
2023-05-03T17:18:17.365Z,100.00
2023-05-03T17:28:21.051Z,100.00
2023-05-03T17:38:23.472Z,100.00
2023-05-03T17:48:25.110Z,100.00
2023-05-03T17:58:29.192Z,100.00
2023-05-03T18:08:33.512Z,100.00
2023-05-03T18:18:35.511Z,100.00
2023-05-03T18:28:41.309Z,100.00
2023-05-03T18:38:53.996Z,100.00
2023-05-03T18:48:57.611Z,100.00
2023-05-03T18:59:00.140Z,100.00
2023-05-03T19:09:02.850Z,100.00
2023-05-03T19:19:12.654Z,100.00
2023-05-03T19:29:14.936Z,100.00
2023-05-03T19:39:18.593Z,100.00
2023-05-03T19:49:24.013Z,100.00
2023-05-03T19:59:25.760Z,100.00
2023-05-03T20:09:29.870Z,100.00
2023-05-03T20:19:32.779Z,100.00
2023-05-03T20:29:36.263Z,100.00
2023-05-03T20:39:47.277Z,100.00
2023-05-03T20:49:48.990Z,100.00
2023-05-03T20:59:51.300Z,100.00
2023-05-03T21:09:52.969Z,100.00
2023-05-03T21:19:54.644Z,100.00
2023-05-03T21:29:56.246Z,100.00
2023-05-03T21:40:02.048Z,100.00
2023-05-03T21:50:08.024Z,100.00
2023-05-03T22:00:16.818Z,100.00
2023-05-03T22:10:20.680Z,100.00
2023-05-03T22:20:23.406Z,100.00
2023-05-03T22:30:32.460Z,100.00
2023-05-03T22:40:34.232Z,100.00
2023-05-03T22:50:36.135Z,100.00
2023-05-03T23:00:38.631Z,100.00
2023-05-03T23:10:42.102Z,100.00
2023-05-03T23:20:45.158Z,100.00
2023-05-03T23:30:48.856Z,100.00
2023-05-03T23:40:52.821Z,100.00
2023-05-03T23:50:54.659Z,100.00
